createdAt,value
2017-11-15T00:01:48.345Z,7.90
2017-11-15T00:04:15.814Z,7.90
2017-11-15T00:06:43.363Z,7.90
2017-11-15T00:09:10.850Z,7.90
2017-11-15T00:11:39.111Z,8.00
2017-11-15T00:14:06.580Z,8.00
2017-11-15T00:16:34.799Z,8.10
2017-11-15T00:19:02.263Z,8.00
2017-11-15T00:21:29.739Z,8.10
2017-11-15T00:23:57.358Z,8.10
2017-11-15T00:26:24.818Z,8.10
2017-11-15T00:28:52.293Z,8.10
2017-11-15T00:31:19.744Z,8.10
2017-11-15T00:33:47.222Z,8.10
2017-11-15T00:36:14.698Z,8.10
2017-11-15T00:38:42.172Z,8.10
2017-11-15T00:41:09.705Z,8.00
2017-11-15T00:43:37.149Z,8.00
2017-11-15T00:46:04.706Z,8.10
2017-11-15T00:48:32.193Z,8.10
2017-11-15T00:51:00.437Z,8.30
2017-11-15T00:53:27.881Z,8.20
2017-11-15T00:55:55.367Z,8.30
2017-11-15T00:58:22.843Z,8.20
2017-11-15T01:00:51.150Z,8.10
2017-11-15T01:03:18.609Z,8.10
2017-11-15T01:05:46.115Z,8.20
2017-11-15T01:08:13.601Z,8.10
2017-11-15T01:10:41.082Z,8.20
2017-11-15T01:13:08.585Z,8.20
2017-11-15T01:15:36.041Z,8.20
2017-11-15T01:18:04.313Z,8.30
2017-11-15T01:20:31.768Z,8.20
2017-11-15T01:22:59.229Z,8.30
2017-11-15T01:25:26.788Z,8.30
2017-11-15T01:27:54.262Z,8.50
2017-11-15T01:30:22.500Z,8.30
2017-11-15T01:32:49.969Z,8.30
2017-11-15T01:35:17.527Z,8.30
2017-11-15T01:37:45.046Z,8.30
2017-11-15T01:40:12.570Z,8.30
2017-11-15T01:42:40.811Z,8.30
2017-11-15T01:45:08.267Z,8.30
2017-11-15T01:47:35.735Z,8.40
2017-11-15T01:50:03.194Z,8.40
2017-11-15T01:52:30.758Z,8.30
2017-11-15T01:54:58.226Z,8.30
2017-11-15T01:57:26.478Z,8.30
2017-11-15T01:59:53.933Z,8.30
2017-11-15T02:02:22.164Z,8.20
2017-11-15T02:04:49.679Z,8.10
2017-11-15T02:07:17.136Z,8.10
2017-11-15T02:09:44.706Z,8.20
2017-11-15T02:12:13.020Z,8.20
2017-11-15T02:14:40.866Z,8.10
2017-11-15T02:17:08.476Z,8.20
2017-11-15T02:19:36.068Z,8.20
2017-11-15T02:22:04.430Z,8.10
2017-11-15T02:24:31.885Z,8.10
2017-11-15T02:27:00.877Z,8.10
2017-11-15T02:29:28.446Z,8.10
2017-11-15T02:31:56.768Z,8.20
2017-11-15T02:34:24.235Z,8.20
2017-11-15T02:36:51.708Z,8.30
2017-11-15T02:39:19.204Z,8.30
2017-11-15T02:41:46.662Z,8.40
2017-11-15T02:44:14.910Z,8.40
2017-11-15T02:46:42.478Z,8.40
2017-11-15T02:49:09.934Z,8.40
2017-11-15T02:51:37.427Z,8.40
2017-11-15T02:54:04.894Z,8.30
2017-11-15T02:56:32.353Z,8.30
2017-11-15T02:58:59.858Z,8.30
2017-11-15T03:01:28.132Z,8.20
2017-11-15T03:03:56.362Z,8.30
2017-11-15T03:06:23.817Z,8.20
2017-11-15T03:08:51.289Z,8.20
2017-11-15T03:11:18.776Z,8.10
2017-11-15T03:13:46.251Z,8.20
2017-11-15T03:16:14.477Z,8.20
2017-11-15T03:18:41.949Z,8.10
2017-11-15T03:21:15.479Z,8.10
2017-11-15T03:23:43.737Z,7.90
2017-11-15T03:26:11.205Z,7.90
2017-11-15T03:28:38.756Z,8.00
2017-11-15T03:31:06.230Z,8.00
2017-11-15T03:33:34.457Z,7.90
2017-11-15T03:36:01.968Z,7.90
2017-11-15T03:38:30.225Z,7.80
2017-11-15T03:40:57.695Z,7.80
2017-11-15T03:43:26.010Z,7.90
2017-11-15T03:45:53.512Z,7.90
2017-11-15T03:48:21.814Z,7.90
2017-11-15T03:50:50.054Z,8.00
2017-11-15T03:53:17.520Z,8.00
2017-11-15T03:55:45.760Z,8.20
2017-11-15T03:58:13.252Z,8.10
2017-11-15T04:00:40.718Z,8.20
2017-11-15T04:03:08.177Z,8.20
2017-11-15T04:05:35.783Z,8.20
2017-11-15T04:08:03.267Z,8.20
2017-11-15T04:10:30.731Z,8.00
2017-11-15T04:12:58.207Z,8.10
2017-11-15T04:15:25.671Z,8.00
2017-11-15T04:17:53.901Z,8.10
2017-11-15T04:20:21.393Z,8.00
2017-11-15T04:22:49.638Z,8.10
2017-11-15T04:25:17.109Z,8.10
2017-11-15T04:27:44.580Z,8.10
2017-11-15T04:30:12.819Z,8.10
2017-11-15T04:32:40.281Z,8.10
2017-11-15T04:35:07.738Z,8.20
2017-11-15T04:37:35.223Z,8.20
2017-11-15T04:40:02.694Z,8.20
2017-11-15T04:42:30.937Z,8.30
2017-11-15T04:44:58.411Z,8.20
2017-11-15T04:47:25.871Z,8.20
2017-11-15T04:49:53.346Z,8.20
2017-11-15T04:52:21.582Z,8.20
2017-11-15T04:54:49.051Z,8.10
2017-11-15T04:57:16.599Z,8.20
2017-11-15T04:59:44.072Z,8.30
2017-11-15T05:02:11.627Z,8.30
2017-11-15T05:04:39.093Z,8.30
2017-11-15T05:07:07.354Z,8.40
2017-11-15T05:09:34.915Z,8.40
2017-11-15T05:12:02.386Z,8.50
2017-11-15T05:14:29.851Z,8.50
2017-11-15T05:16:58.078Z,8.40
2017-11-15T05:19:25.562Z,8.40
2017-11-15T05:21:53.795Z,8.50
2017-11-15T05:24:21.288Z,8.40
2017-11-15T05:26:48.755Z,8.40
2017-11-15T05:29:16.236Z,8.30
2017-11-15T05:31:44.477Z,8.30
2017-11-15T05:34:11.947Z,8.30
2017-11-15T05:36:40.921Z,8.30
2017-11-15T05:39:08.382Z,8.30
2017-11-15T05:41:36.002Z,8.50
2017-11-15T05:44:03.479Z,8.50
2017-11-15T05:46:30.941Z,8.50
2017-11-15T05:48:58.409Z,8.50
2017-11-15T05:51:25.929Z,8.50
2017-11-15T05:53:53.391Z,8.40
2017-11-15T05:56:20.887Z,8.40
2017-11-15T05:58:48.351Z,8.40
2017-11-15T06:01:15.810Z,8.50
2017-11-15T06:03:44.058Z,8.60
2017-11-15T06:06:11.525Z,8.50
2017-11-15T06:08:39.016Z,8.50
2017-11-15T06:11:07.398Z,8.50
2017-11-15T06:13:35.534Z,8.40
2017-11-15T06:16:07.931Z,8.30
2017-11-15T06:18:35.477Z,8.40
2017-11-15T06:21:03.162Z,8.40
2017-11-15T06:23:30.620Z,8.30
2017-11-15T06:25:58.157Z,8.30
2017-11-15T06:28:25.606Z,8.30
2017-11-15T06:30:53.271Z,8.30
2017-11-15T06:33:20.847Z,8.30
2017-11-15T06:35:49.018Z,8.30
2017-11-15T06:38:16.512Z,8.30
2017-11-15T06:40:44.071Z,8.40
2017-11-15T06:43:11.532Z,8.40
2017-11-15T06:45:38.997Z,8.40
2017-11-15T06:48:06.454Z,8.40
2017-11-15T06:50:33.926Z,8.50
2017-11-15T06:53:01.385Z,8.50
2017-11-15T06:55:28.966Z,8.50
2017-11-15T06:57:56.448Z,8.40
2017-11-15T07:00:23.925Z,8.50
2017-11-15T07:02:51.396Z,8.40
2017-11-15T07:05:18.888Z,8.30
2017-11-15T07:07:46.346Z,8.30
2017-11-15T07:10:13.820Z,8.30
2017-11-15T07:12:42.045Z,8.30
2017-11-15T07:15:09.535Z,8.30
2017-11-15T07:17:37.008Z,8.20
2017-11-15T07:20:05.273Z,8.40
2017-11-15T07:22:32.750Z,8.40
2017-11-15T07:25:01.125Z,8.40
2017-11-15T07:27:29.347Z,8.50
2017-11-15T07:29:56.846Z,8.50
2017-11-15T07:32:25.113Z,8.50
2017-11-15T07:34:52.572Z,8.40
2017-11-15T07:37:20.035Z,8.50
2017-11-15T07:39:48.260Z,8.60
2017-11-15T07:42:15.723Z,8.50
2017-11-15T07:44:43.187Z,8.60
2017-11-15T07:47:10.667Z,8.60
2017-11-15T07:49:38.127Z,8.60
2017-11-15T07:52:05.605Z,8.70
2017-11-15T07:54:33.836Z,8.80
2017-11-15T07:57:01.435Z,8.70
2017-11-15T07:59:29.795Z,8.80
2017-11-15T08:01:57.271Z,8.70
2017-11-15T08:04:25.499Z,8.50
2017-11-15T08:06:52.983Z,8.50
2017-11-15T08:09:20.451Z,8.50
2017-11-15T08:11:47.921Z,8.50
2017-11-15T08:14:16.150Z,8.70
2017-11-15T08:16:43.602Z,8.70
2017-11-15T08:19:11.177Z,8.70
2017-11-15T08:21:38.658Z,8.70
2017-11-15T08:24:06.916Z,8.80
2017-11-15T08:26:34.388Z,8.80
2017-11-15T08:29:02.651Z,8.70
2017-11-15T08:31:30.115Z,8.60
2017-11-15T08:33:58.367Z,8.60
2017-11-15T08:36:25.943Z,8.50
2017-11-15T08:38:53.498Z,8.60
2017-11-15T08:41:21.053Z,8.60
2017-11-15T08:43:48.547Z,8.70
2017-11-15T08:46:16.079Z,8.70
2017-11-15T08:48:43.544Z,8.70
2017-11-15T08:51:11.789Z,8.80
2017-11-15T08:53:39.247Z,8.80
2017-11-15T08:56:06.834Z,8.90
2017-11-15T08:58:35.149Z,9.10
2017-11-15T09:01:02.628Z,9.00
2017-11-15T09:03:30.099Z,9.10
2017-11-15T09:05:57.679Z,9.10
2017-11-15T09:08:25.158Z,9.10
2017-11-15T09:10:53.391Z,9.10
2017-11-15T09:13:20.890Z,9.10
2017-11-15T09:15:48.355Z,9.10
2017-11-15T09:18:15.870Z,9.00
2017-11-15T09:20:43.343Z,9.20
2017-11-15T09:23:10.887Z,9.00
2017-11-15T09:25:38.342Z,9.00
2017-11-15T09:28:05.815Z,8.90
2017-11-15T09:30:34.051Z,9.00
2017-11-15T09:33:01.538Z,8.90
2017-11-15T09:35:29.005Z,9.00
2017-11-15T09:37:57.242Z,9.00
2017-11-15T09:40:24.714Z,9.00
2017-11-15T09:42:52.231Z,9.00
2017-11-15T09:45:19.693Z,9.20
2017-11-15T09:47:47.156Z,9.20
2017-11-15T09:50:14.630Z,9.10
2017-11-15T09:52:42.207Z,9.00
2017-11-15T09:55:09.665Z,9.00
2017-11-15T09:57:37.158Z,9.00
2017-11-15T10:00:04.695Z,9.00
2017-11-15T10:02:32.928Z,9.10
2017-11-15T10:05:00.394Z,9.00
2017-11-15T10:07:27.883Z,9.00
2017-11-15T10:09:55.355Z,9.10
2017-11-15T10:12:23.585Z,9.20
2017-11-15T10:14:51.058Z,9.10
2017-11-15T10:17:18.522Z,9.20
2017-11-15T10:19:45.998Z,9.30
2017-11-15T10:22:14.235Z,9.60
2017-11-15T10:24:41.802Z,9.50
2017-11-15T10:27:09.363Z,9.60
2017-11-15T10:29:37.285Z,9.60
2017-11-15T10:32:04.858Z,9.50
2017-11-15T10:34:32.345Z,9.60
2017-11-15T10:36:59.836Z,9.50
2017-11-15T10:39:27.407Z,9.50
2017-11-15T10:41:54.933Z,9.50
2017-11-15T10:44:23.200Z,9.50
2017-11-15T10:46:50.791Z,9.40
2017-11-15T10:49:18.324Z,9.40
2017-11-15T10:51:45.876Z,9.40
2017-11-15T10:54:13.423Z,9.40
2017-11-15T10:56:40.910Z,9.50
2017-11-15T10:59:09.152Z,9.50
2017-11-15T11:01:37.419Z,9.70
2017-11-15T11:04:04.887Z,9.60
2017-11-15T11:06:32.441Z,9.70
2017-11-15T11:08:59.919Z,9.60
2017-11-15T11:11:27.462Z,9.70
2017-11-15T11:13:54.979Z,9.80
2017-11-15T11:16:22.510Z,9.70
2017-11-15T11:18:50.798Z,9.90
2017-11-15T11:21:18.290Z,9.80
2017-11-15T11:23:45.776Z,9.90
2017-11-15T11:26:13.339Z,9.80
2017-11-15T11:28:40.899Z,9.70
2017-11-15T11:31:09.208Z,9.70
2017-11-15T11:33:36.709Z,9.60
2017-11-15T11:36:04.977Z,9.60
2017-11-15T11:38:32.526Z,9.50
2017-11-15T11:41:00.588Z,9.40
2017-11-15T11:43:28.486Z,9.50
2017-11-15T11:45:55.950Z,9.50
2017-11-15T11:48:23.472Z,9.50
2017-11-15T11:50:50.930Z,9.50
2017-11-15T11:53:18.483Z,9.50
2017-11-15T11:55:45.954Z,9.60
2017-11-15T11:58:13.427Z,9.60
2017-11-15T12:00:40.895Z,9.70
2017-11-15T12:03:08.415Z,9.80
2017-11-15T12:05:35.970Z,9.80
2017-11-15T12:08:03.432Z,9.70
2017-11-15T12:10:30.900Z,9.80
2017-11-15T12:12:58.359Z,9.90
2017-11-15T12:15:25.822Z,9.90
2017-11-15T12:17:53.296Z,9.90
2017-11-15T12:20:20.788Z,10.00
2017-11-15T12:22:48.244Z,10.10
2017-11-15T12:25:15.712Z,10.20
2017-11-15T12:27:43.173Z,10.00
2017-11-15T12:30:10.782Z,9.90
2017-11-15T12:32:39.749Z,9.90
2017-11-15T12:35:07.291Z,9.90
2017-11-15T12:37:34.803Z,10.00
2017-11-15T12:40:02.302Z,10.10
2017-11-15T12:42:29.815Z,10.20
2017-11-15T12:44:58.056Z,10.20
2017-11-15T12:47:25.531Z,10.10
2017-11-15T12:49:52.994Z,10.20
2017-11-15T12:52:20.488Z,10.30
2017-11-15T12:54:47.954Z,10.20
2017-11-15T12:57:15.461Z,10.20
2017-11-15T12:59:43.031Z,10.20
2017-11-15T13:02:10.496Z,10.20
2017-11-15T13:04:37.958Z,10.30
2017-11-15T13:07:06.200Z,10.40
2017-11-15T13:09:33.663Z,10.30
2017-11-15T13:12:01.130Z,10.40
2017-11-15T13:14:28.640Z,10.50
2017-11-15T13:16:56.111Z,10.60
2017-11-15T13:19:23.598Z,10.60
2017-11-15T13:21:51.154Z,10.40
2017-11-15T13:24:18.615Z,10.30
2017-11-15T13:26:46.083Z,10.20
2017-11-15T13:29:13.547Z,10.30
2017-11-15T13:31:41.779Z,10.30
2017-11-15T13:34:09.317Z,10.20
2017-11-15T13:36:36.934Z,10.30
2017-11-15T13:39:05.181Z,10.30
2017-11-15T13:41:32.652Z,10.30
2017-11-15T13:44:00.224Z,10.30
2017-11-15T13:46:28.459Z,10.20
2017-11-15T13:48:55.969Z,10.20
2017-11-15T13:51:24.203Z,10.20
2017-11-15T13:53:51.742Z,10.10
2017-11-15T13:56:19.248Z,10.30
2017-11-15T13:58:46.759Z,10.20
2017-11-15T14:01:14.236Z,10.20
2017-11-15T14:03:41.707Z,10.20
2017-11-15T14:06:09.175Z,10.20
2017-11-15T14:08:36.721Z,10.20
2017-11-15T14:11:04.179Z,10.20
2017-11-15T14:13:31.684Z,10.20
2017-11-15T14:15:59.164Z,10.30
2017-11-15T14:18:26.650Z,10.40
2017-11-15T14:20:54.130Z,10.40
2017-11-15T14:23:22.358Z,10.40
2017-11-15T14:25:49.830Z,10.30
2017-11-15T14:28:17.298Z,10.30
2017-11-15T14:30:44.765Z,10.40
2017-11-15T14:33:12.229Z,10.40
2017-11-15T14:35:40.462Z,10.30
2017-11-15T14:38:08.043Z,10.30
2017-11-15T14:40:35.522Z,10.30
2017-11-15T14:43:03.773Z,10.40
2017-11-15T14:45:31.276Z,10.30
2017-11-15T14:47:58.823Z,10.30
2017-11-15T14:50:27.052Z,10.40
2017-11-15T14:52:54.627Z,10.30
2017-11-15T14:55:22.186Z,10.30
2017-11-15T14:57:49.675Z,10.20
2017-11-15T15:00:17.153Z,10.20
2017-11-15T15:02:44.663Z,10.20
2017-11-15T15:05:12.938Z,10.30
2017-11-15T15:07:40.509Z,10.30
2017-11-15T15:10:08.750Z,10.30
2017-11-15T15:12:36.327Z,10.20
2017-11-15T15:15:03.794Z,10.30
2017-11-15T15:17:31.347Z,10.20
2017-11-15T15:19:58.802Z,10.20
2017-11-15T15:22:26.275Z,10.20
2017-11-15T15:24:54.617Z,10.30
2017-11-15T15:27:22.202Z,10.20
2017-11-15T15:29:49.767Z,10.30
2017-11-15T15:32:18.078Z,10.40
2017-11-15T15:34:45.969Z,10.30
2017-11-15T15:37:13.545Z,10.40
2017-11-15T15:39:41.337Z,10.50
2017-11-15T15:42:09.798Z,10.40
2017-11-15T15:44:37.665Z,10.40
2017-11-15T15:47:05.261Z,10.40
2017-11-15T15:49:32.834Z,10.40
2017-11-15T15:52:00.390Z,10.50
2017-11-15T15:54:28.790Z,10.50
2017-11-15T15:56:56.761Z,10.50
2017-11-15T15:59:24.385Z,10.50
2017-11-15T16:01:51.907Z,10.40
2017-11-15T16:04:19.387Z,10.40
2017-11-15T16:06:47.626Z,10.40
2017-11-15T16:09:15.127Z,10.40
2017-11-15T16:11:42.664Z,10.40
2017-11-15T16:14:10.243Z,10.40
2017-11-15T16:16:38.504Z,10.40
2017-11-15T16:19:06.820Z,10.40
2017-11-15T16:21:34.405Z,10.30
2017-11-15T16:24:02.025Z,10.40
2017-11-15T16:26:29.608Z,10.50
2017-11-15T16:28:57.138Z,10.50
2017-11-15T16:31:24.654Z,10.50
2017-11-15T16:33:52.133Z,10.50
2017-11-15T16:36:20.425Z,10.60
2017-11-15T16:38:48.685Z,10.60
2017-11-15T16:41:16.977Z,10.60
2017-11-15T16:43:45.196Z,10.50
2017-11-15T16:46:12.665Z,10.50
2017-11-15T16:48:40.142Z,10.60
2017-11-15T16:51:08.372Z,10.60
2017-11-15T16:53:35.862Z,10.60
2017-11-15T16:56:03.337Z,10.60
2017-11-15T16:58:31.595Z,10.60
2017-11-15T17:00:59.159Z,10.50
2017-11-15T17:03:26.644Z,10.40
2017-11-15T17:05:57.131Z,10.40
2017-11-15T17:08:24.603Z,10.40
2017-11-15T17:10:52.079Z,10.50
2017-11-15T17:13:20.316Z,10.40
2017-11-15T17:15:47.794Z,10.40
2017-11-15T17:18:15.342Z,10.30
2017-11-15T17:20:42.935Z,10.30
2017-11-15T17:23:11.176Z,10.20
2017-11-15T17:25:38.641Z,10.20
2017-11-15T17:28:06.122Z,10.20
2017-11-15T17:30:34.367Z,10.30
2017-11-15T17:33:01.872Z,10.20
2017-11-15T17:35:29.347Z,10.30
2017-11-15T17:37:56.828Z,10.30
2017-11-15T17:40:24.287Z,10.40
2017-11-15T17:42:51.862Z,10.30
2017-11-15T17:45:19.422Z,10.30
2017-11-15T17:47:46.909Z,10.30
2017-11-15T17:50:14.371Z,10.20
2017-11-15T17:52:41.886Z,10.20
2017-11-15T17:55:09.370Z,10.20
2017-11-15T17:57:37.610Z,10.30
2017-11-15T18:00:05.084Z,10.20
2017-11-15T18:02:32.634Z,10.20
2017-11-15T18:05:00.111Z,10.10
2017-11-15T18:07:28.353Z,10.10
2017-11-15T18:09:55.828Z,10.00
2017-11-15T18:12:23.286Z,10.00
2017-11-15T18:14:50.763Z,10.10
2017-11-15T18:17:19.006Z,10.20
2017-11-15T18:19:46.474Z,10.10
2017-11-15T18:22:14.027Z,10.30
2017-11-15T18:24:42.286Z,10.30
2017-11-15T18:27:09.866Z,10.30
2017-11-15T18:29:37.413Z,10.40
2017-11-15T18:32:04.907Z,10.40
2017-11-15T18:34:33.141Z,10.40
2017-11-15T18:37:00.621Z,10.40
2017-11-15T18:39:28.882Z,10.40
2017-11-15T18:41:56.402Z,10.40
2017-11-15T18:44:23.910Z,10.40
2017-11-15T18:46:52.183Z,10.30
2017-11-15T18:49:19.736Z,10.30
2017-11-15T18:51:47.243Z,10.30
2017-11-15T18:54:14.721Z,10.30
2017-11-15T18:56:42.194Z,10.30
2017-11-15T18:59:09.666Z,10.30
2017-11-15T19:01:37.197Z,10.30
2017-11-15T19:04:04.661Z,10.30
2017-11-15T19:06:32.126Z,10.30
2017-11-15T19:08:59.671Z,10.30
2017-11-15T19:11:27.292Z,10.30
2017-11-15T19:13:54.810Z,10.20
2017-11-15T19:16:22.366Z,10.20
2017-11-15T19:18:49.917Z,10.10
2017-11-15T19:21:17.380Z,10.10
2017-11-15T19:23:44.867Z,10.20
2017-11-15T19:26:13.109Z,10.30
2017-11-15T19:28:40.576Z,10.30
2017-11-15T19:31:08.124Z,10.30
2017-11-15T19:33:35.612Z,10.30
2017-11-15T19:36:03.871Z,10.20
2017-11-15T19:38:31.338Z,10.20
2017-11-15T19:40:59.570Z,10.30
2017-11-15T19:43:27.054Z,10.20
2017-11-15T19:45:54.627Z,10.30
2017-11-15T19:48:22.852Z,10.40
2017-11-15T19:50:50.339Z,10.30
2017-11-15T19:53:17.814Z,10.40
2017-11-15T19:55:46.049Z,10.40
2017-11-15T19:58:13.586Z,10.30
2017-11-15T20:00:41.051Z,10.40
2017-11-15T20:03:08.510Z,10.50
2017-11-15T20:05:35.990Z,10.50
2017-11-15T20:08:03.456Z,10.50
2017-11-15T20:10:30.935Z,10.50
2017-11-15T20:12:59.178Z,10.60
2017-11-15T20:15:26.686Z,10.60
2017-11-15T20:17:54.204Z,10.60
2017-11-15T20:20:22.434Z,10.50
2017-11-15T20:22:49.947Z,10.50
2017-11-15T20:25:17.410Z,10.50
2017-11-15T20:27:45.655Z,10.50
2017-11-15T20:30:13.561Z,10.40
2017-11-15T20:32:41.355Z,10.50
2017-11-15T20:35:08.826Z,10.50
2017-11-15T20:37:36.293Z,10.50
2017-11-15T20:40:03.973Z,10.60
2017-11-15T20:42:32.255Z,10.50
2017-11-15T20:44:59.723Z,10.40
2017-11-15T20:47:27.970Z,10.30
2017-11-15T20:49:55.598Z,10.30
2017-11-15T20:52:23.209Z,10.40
2017-11-15T20:54:50.909Z,10.40
2017-11-15T20:57:18.402Z,10.50
2017-11-15T20:59:45.945Z,10.50
2017-11-15T21:02:13.528Z,10.60
2017-11-15T21:04:41.840Z,10.50
2017-11-15T21:07:10.079Z,10.50
2017-11-15T21:09:37.610Z,10.50
2017-11-15T21:12:05.473Z,10.50
2017-11-15T21:14:33.005Z,10.50
2017-11-15T21:17:00.693Z,10.60
2017-11-15T21:19:29.152Z,10.60
2017-11-15T21:21:56.612Z,10.60
2017-11-15T21:24:24.100Z,10.60
2017-11-15T21:26:51.748Z,10.70
2017-11-15T21:29:19.254Z,10.60
2017-11-15T21:31:46.714Z,10.40
2017-11-15T21:34:14.974Z,10.30
2017-11-15T21:36:42.458Z,10.20
2017-11-15T21:39:10.698Z,10.30
2017-11-15T21:41:38.180Z,10.30
2017-11-15T21:44:06.492Z,10.30
2017-11-15T21:46:33.966Z,10.20
2017-11-15T21:49:01.434Z,10.30
2017-11-15T21:51:28.905Z,10.30
2017-11-15T21:53:56.478Z,10.30
2017-11-15T21:56:23.945Z,10.30
2017-11-15T21:58:52.179Z,10.30
2017-11-15T22:01:19.660Z,10.20
2017-11-15T22:03:47.227Z,10.30
2017-11-15T22:06:14.735Z,10.40
2017-11-15T22:08:42.219Z,10.50
2017-11-15T22:11:09.698Z,10.50
2017-11-15T22:13:37.170Z,10.50
2017-11-15T22:16:05.426Z,10.30
2017-11-15T22:18:32.898Z,10.30
2017-11-15T22:21:01.148Z,10.40
2017-11-15T22:23:28.699Z,10.30
2017-11-15T22:25:56.187Z,10.40
2017-11-15T22:28:24.458Z,10.40
2017-11-15T22:30:52.700Z,10.40
2017-11-15T22:33:20.203Z,10.40
2017-11-15T22:35:48.453Z,10.50
2017-11-15T22:38:15.929Z,10.40
2017-11-15T22:40:44.191Z,10.60
2017-11-15T22:43:11.661Z,10.50
2017-11-15T22:45:39.993Z,10.60
2017-11-15T22:48:07.463Z,10.60
2017-11-15T22:50:35.051Z,10.60
2017-11-15T22:53:03.321Z,10.50
2017-11-15T22:55:30.880Z,10.50
2017-11-15T22:57:59.165Z,10.50
2017-11-15T23:00:27.439Z,10.40
2017-11-15T23:02:55.691Z,10.40
2017-11-15T23:05:23.173Z,10.40
2017-11-15T23:07:50.718Z,10.40
2017-11-15T23:10:18.197Z,10.30
2017-11-15T23:12:46.448Z,10.50
2017-11-15T23:15:13.923Z,10.40
2017-11-15T23:17:42.165Z,10.50
2017-11-15T23:20:09.650Z,10.50
2017-11-15T23:22:37.901Z,10.60
2017-11-15T23:25:05.372Z,10.60
2017-11-15T23:27:32.834Z,10.50
2017-11-15T23:30:00.302Z,10.50
2017-11-15T23:32:28.563Z,10.60
2017-11-15T23:34:56.117Z,10.50
2017-11-15T23:37:23.682Z,10.60
2017-11-15T23:39:51.238Z,10.60
2017-11-15T23:42:18.706Z,10.60
2017-11-15T23:44:47.070Z,10.60
2017-11-15T23:47:14.621Z,10.60
2017-11-15T23:49:42.111Z,10.60
2017-11-15T23:52:10.353Z,10.70
2017-11-15T23:54:37.918Z,10.60
2017-11-15T23:57:05.398Z,10.70
2017-11-15T23:59:33.649Z,10.60
